Crawford, Maine
Current Conditions -  °F | °C
As of 8:35 AM on Monday 22 Dec 2014 (Local Time) from KBHB Reporting Station
Overcast Overcast  
Wind Chill: 22°   Ceiling: 6000
Heat Index: 28°   Visibility: 10mi
Dew Point: 28°   Wind: 6mph
Humidity: 100%   Direction: 360°N
Pressure: 30.44"   Gusts: NA
Location:  45.0659°N, 67.4987°W
Report Text: KBHB 221335Z AUTO 36005KT 10SM OVC060 M02/M02 A3044 RMK AO1
Loading
Personal Weather Stations






























Interactive Weather Map New forecast layout! Learn more

10-Day Weather Forecast

Advertisements
Track Severe Weather on mobile